sensor_id;sensor_type;location;lat;lon;timestamp;pressure;altitude;pressure_sealevel;temperature;humidity
64841;BME280;51307;52.162;7.560;2022-11-20T00:02:15;100802.13;;;-2.77;84.83
64841;BME280;51307;52.162;7.560;2022-11-20T00:04:40;100801.41;;;-2.80;85.19
64841;BME280;51307;52.162;7.560;2022-11-20T00:07:05;100792.09;;;-2.81;84.94
64841;BME280;51307;52.162;7.560;2022-11-20T00:09:31;100792.09;;;-2.81;84.85
64841;BME280;51307;52.162;7.560;2022-11-20T00:11:56;100794.72;;;-2.83;84.73
64841;BME280;51307;52.162;7.560;2022-11-20T00:14:22;100792.31;;;-2.86;84.86
64841;BME280;51307;52.162;7.560;2022-11-20T00:16:47;100786.69;;;-2.94;85.10
64841;BME280;51307;52.162;7.560;2022-11-20T00:19:13;100780.91;;;-2.98;85.52
64841;BME280;51307;52.162;7.560;2022-11-20T00:21:38;100786.84;;;-2.97;85.64
64841;BME280;51307;52.162;7.560;2022-11-20T00:24:04;100790.25;;;-2.98;85.37
64841;BME280;51307;52.162;7.560;2022-11-20T00:26:30;100789.44;;;-2.99;85.20
64841;BME280;51307;52.162;7.560;2022-11-20T00:28:58;100786.84;;;-2.97;85.29
64841;BME280;51307;52.162;7.560;2022-11-20T00:31:25;100782.59;;;-2.98;85.31
64841;BME280;51307;52.162;7.560;2022-11-20T00:33:51;100779.22;;;-2.99;85.09
64841;BME280;51307;52.162;7.560;2022-11-20T00:36:19;100780.94;;;-2.99;85.10
64841;BME280;51307;52.162;7.560;2022-11-20T00:38:45;100781.84;;;-3.00;85.09
64841;BME280;51307;52.162;7.560;2022-11-20T00:41:14;100782.59;;;-2.98;84.78
64841;BME280;51307;52.162;7.560;2022-11-20T00:43:41;100785.25;;;-3.00;84.76
64841;BME280;51307;52.162;7.560;2022-11-20T00:46:18;100787.78;;;-3.00;85.02
64841;BME280;51307;52.162;7.560;2022-11-20T00:48:45;100796.28;;;-2.99;84.98
64841;BME280;51307;52.162;7.560;2022-11-20T00:51:18;100787.78;;;-3.00;84.79
64841;BME280;51307;52.162;7.560;2022-11-20T00:53:44;100788.81;;;-3.04;84.97
64841;BME280;51307;52.162;7.560;2022-11-20T00:56:12;100784.59;;;-3.05;84.99
64841;BME280;51307;52.162;7.560;2022-11-20T00:58:40;100786.31;;;-3.05;85.01
64841;BME280;51307;52.162;7.560;2022-11-20T01:01:09;100789.91;;;-3.09;84.98
64841;BME280;51307;52.162;7.560;2022-11-20T01:03:37;100784.16;;;-3.14;85.34
64841;BME280;51307;52.162;7.560;2022-11-20T01:06:07;100781.72;;;-3.18;85.58
64841;BME280;51307;52.162;7.560;2022-11-20T01:08:35;100783.41;;;-3.17;85.80
64841;BME280;51307;52.162;7.560;2022-11-20T01:11:06;100781.66;;;-3.16;85.67
64841;BME280;51307;52.162;7.560;2022-11-20T01:13:32;100779.88;;;-3.14;85.54
64841;BME280;51307;52.162;7.560;2022-11-20T01:18:34;100784.34;;;-3.19;85.88
64841;BME280;51307;52.162;7.560;2022-11-20T01:21:02;100782.63;;;-3.19;85.69
64841;BME280;51307;52.162;7.560;2022-11-20T01:23:31;100783.44;;;-3.18;85.36
64841;BME280;51307;52.162;7.560;2022-11-20T01:25:59;100774.19;;;-3.21;85.29
64841;BME280;51307;52.162;7.560;2022-11-20T01:28:25;100786.16;;;-3.21;85.04
64841;BME280;51307;52.162;7.560;2022-11-20T01:30:50;100767.34;;;-3.20;85.00
64841;BME280;51307;52.162;7.560;2022-11-20T01:33:16;100758.06;;;-3.21;84.96
64841;BME280;51307;52.162;7.560;2022-11-20T01:35:41;100766.59;;;-3.22;84.88
64841;BME280;51307;52.162;7.560;2022-11-20T01:38:07;100757.28;;;-3.23;85.09
64841;BME280;51307;52.162;7.560;2022-11-20T01:40:32;100754.78;;;-3.25;84.95
64841;BME280;51307;52.162;7.560;2022-11-20T01:43:17;100746.44;;;-3.28;85.00
64841;BME280;51307;52.162;7.560;2022-11-20T01:48:14;100746.69;;;-3.34;85.05
64841;BME280;51307;52.162;7.560;2022-11-20T01:50:41;100739.22;;;-3.39;85.16
64841;BME280;51307;52.162;7.560;2022-11-20T01:53:12;100742.66;;;-3.40;84.80
64841;BME280;51307;52.162;7.560;2022-11-20T01:55:46;100735.09;;;-3.42;84.90
64841;BME280;51307;52.162;7.560;2022-11-20T01:58:16;100735.16;;;-3.43;84.63
64841;BME280;51307;52.162;7.560;2022-11-20T02:00:43;100727.53;;;-3.45;84.71
64841;BME280;51307;52.162;7.560;2022-11-20T02:03:12;100725.03;;;-3.46;84.75
64841;BME280;51307;52.162;7.560;2022-11-20T02:05:51;100714.91;;;-3.48;84.77
64841;BME280;51307;52.162;7.560;2022-11-20T02:08:21;100715.03;;;-3.51;84.96
64841;BME280;51307;52.162;7.560;2022-11-20T02:10:48;100712.56;;;-3.52;85.02
64841;BME280;51307;52.162;7.560;2022-11-20T02:13:14;100716.97;;;-3.56;85.23
64841;BME280;51307;52.162;7.560;2022-11-20T02:15:59;100710.56;;;-3.66;85.41
64841;BME280;51307;52.162;7.560;2022-11-20T02:18:26;100714.97;;;-3.70;85.87
64841;BME280;51307;52.162;7.560;2022-11-20T02:21:02;100718.34;;;-3.69;85.77
64841;BME280;51307;52.162;7.560;2022-11-20T02:23:39;100716.53;;;-3.66;85.71
64841;BME280;51307;52.162;7.560;2022-11-20T02:26:12;100722.44;;;-3.65;85.06
64841;BME280;51307;52.162;7.560;2022-11-20T02:28:38;100719.91;;;-3.65;85.02
64841;BME280;51307;52.162;7.560;2022-11-20T02:31:04;100727.50;;;-3.64;85.31
64841;BME280;51307;52.162;7.560;2022-11-20T02:33:30;100724.22;;;-3.67;85.41
64841;BME280;51307;52.162;7.560;2022-11-20T02:35:55;100714.84;;;-3.67;85.51
64841;BME280;51307;52.162;7.560;2022-11-20T02:38:21;100724.94;;;-3.64;85.54
64841;BME280;51307;52.162;7.560;2022-11-20T02:40:46;100711.28;;;-3.63;85.38
64841;BME280;51307;52.162;7.560;2022-11-20T02:43:12;100708.72;;;-3.63;85.05
64841;BME280;51307;52.162;7.560;2022-11-20T02:45:38;100717.28;;;-3.64;85.25
64841;BME280;51307;52.162;7.560;2022-11-20T02:48:05;100719.84;;;-3.64;84.86
64841;BME280;51307;52.162;7.560;2022-11-20T02:50:31;100719.84;;;-3.64;84.60
64841;BME280;51307;52.162;7.560;2022-11-20T02:52:56;100721.69;;;-3.67;84.68
64841;BME280;51307;52.162;7.560;2022-11-20T02:55:22;100720.00;;;-3.68;84.78
64841;BME280;51307;52.162;7.560;2022-11-20T02:57:47;100720.91;;;-3.69;84.64
64841;BME280;51307;52.162;7.560;2022-11-20T03:00:13;100721.88;;;-3.72;84.64
64841;BME280;51307;52.162;7.560;2022-11-20T03:02:39;100721.94;;;-3.73;84.34
64841;BME280;51307;52.162;7.560;2022-11-20T03:05:04;100721.94;;;-3.73;84.42
64841;BME280;51307;52.162;7.560;2022-11-20T03:07:30;100710.84;;;-3.72;84.21
64841;BME280;51307;52.162;7.560;2022-11-20T03:09:55;100709.16;;;-3.73;84.23
64841;BME280;51307;52.162;7.560;2022-11-20T03:12:21;100709.16;;;-3.73;83.97
64841;BME280;51307;52.162;7.560;2022-11-20T03:14:46;100708.34;;;-3.74;84.19
64841;BME280;51307;52.162;7.560;2022-11-20T03:17:12;100704.06;;;-3.73;84.22
64841;BME280;51307;52.162;7.560;2022-11-20T03:19:37;100713.41;;;-3.72;84.20
64841;BME280;51307;52.162;7.560;2022-11-20T03:22:03;100704.13;;;-3.75;84.38
64841;BME280;51307;52.162;7.560;2022-11-20T03:24:28;100697.31;;;-3.74;84.48
64841;BME280;51307;52.162;7.560;2022-11-20T03:26:54;100705.84;;;-3.75;84.65
64841;BME280;51307;52.162;7.560;2022-11-20T03:29:19;100705.03;;;-3.76;84.28
64841;BME280;51307;52.162;7.560;2022-11-20T03:31:45;100697.50;;;-3.79;84.25
64841;BME280;51307;52.162;7.560;2022-11-20T03:34:11;100693.34;;;-3.82;84.09
64841;BME280;51307;52.162;7.560;2022-11-20T03:36:41;100689.19;;;-3.84;83.85
64841;BME280;51307;52.162;7.560;2022-11-20T03:39:07;100679.06;;;-3.86;83.98
64841;BME280;51307;52.162;7.560;2022-11-20T03:41:40;100685.03;;;-3.87;84.40
64841;BME280;51307;52.162;7.560;2022-11-20T03:44:08;100678.50;;;-3.92;84.60
64841;BME280;51307;52.162;7.560;2022-11-20T03:46:34;100677.97;;;-4.01;84.77
64841;BME280;51307;52.162;7.560;2022-11-20T03:49:00;100680.56;;;-4.02;85.31
64841;BME280;51307;52.162;7.560;2022-11-20T03:51:28;100673.88;;;-4.05;85.46
64841;BME280;51307;52.162;7.560;2022-11-20T03:53:58;100673.06;;;-4.05;85.43
64841;BME280;51307;52.162;7.560;2022-11-20T03:56:30;100673.88;;;-4.05;85.03
64841;BME280;51307;52.162;7.560;2022-11-20T03:58:57;100669.59;;;-4.04;85.09
64841;BME280;51307;52.162;7.560;2022-11-20T04:01:25;100673.88;;;-4.05;84.88
64841;BME280;51307;52.162;7.560;2022-11-20T04:03:53;100672.22;;;-4.06;85.28
64841;BME280;51307;52.162;7.560;2022-11-20T04:06:21;100670.50;;;-4.05;85.16
64841;BME280;51307;52.162;7.560;2022-11-20T04:08:48;100671.38;;;-4.06;84.94
64841;BME280;51307;52.162;7.560;2022-11-20T04:11:22;100669.59;;;-4.04;84.96
64841;BME280;51307;52.162;7.560;2022-11-20T04:13:50;100662.09;;;-4.07;85.07
64841;BME280;51307;52.162;7.560;2022-11-20T04:16:17;100660.41;;;-4.08;84.87
64841;BME280;51307;52.162;7.560;2022-11-20T04:18:44;100666.41;;;-4.09;84.86
64841;BME280;51307;52.162;7.560;2022-11-20T04:21:10;100666.47;;;-4.11;84.83
64841;BME280;51307;52.162;7.560;2022-11-20T04:23:36;100671.56;;;-4.11;84.82
64841;BME280;51307;52.162;7.560;2022-11-20T04:26:07;100678.59;;;-4.16;85.03
64841;BME280;51307;52.162;7.560;2022-11-20T04:28:34;100665.13;;;-4.20;85.08
64841;BME280;51307;52.162;7.560;2022-11-20T04:31:24;100672.75;;;-4.20;84.51
64841;BME280;51307;52.162;7.560;2022-11-20T04:33:50;100673.66;;;-4.21;84.46
64841;BME280;51307;52.162;7.560;2022-11-20T04:36:19;100673.66;;;-4.21;84.25
64841;BME280;51307;52.162;7.560;2022-11-20T04:38:45;100670.28;;;-4.21;84.10
64841;BME280;51307;52.162;7.560;2022-11-20T04:41:15;100680.50;;;-4.21;84.03
64841;BME280;51307;52.162;7.560;2022-11-20T04:43:41;100676.28;;;-4.22;83.94
64841;BME280;51307;52.162;7.560;2022-11-20T04:46:07;100668.69;;;-4.24;84.20
64841;BME280;51307;52.162;7.560;2022-11-20T04:48:32;100663.56;;;-4.24;84.19
64841;BME280;51307;52.162;7.560;2022-11-20T04:51:03;100664.53;;;-4.26;83.94
64841;BME280;51307;52.162;7.560;2022-11-20T04:53:29;100669.88;;;-4.32;84.07
64841;BME280;51307;52.162;7.560;2022-11-20T04:56:03;100666.56;;;-4.34;84.52
64841;BME280;51307;52.162;7.560;2022-11-20T04:58:29;100664.91;;;-4.35;84.27
64841;BME280;51307;52.162;7.560;2022-11-20T05:01:15;100664.03;;;-4.34;84.25
64841;BME280;51307;52.162;7.560;2022-11-20T05:03:43;100665.81;;;-4.36;84.26
64841;BME280;51307;52.162;7.560;2022-11-20T05:06:10;100663.25;;;-4.36;84.64
64841;BME280;51307;52.162;7.560;2022-11-20T05:08:36;100649.66;;;-4.37;84.46
64841;BME280;51307;52.162;7.560;2022-11-20T05:13:32;100659.03;;;-4.37;84.18
64841;BME280;51307;52.162;7.560;2022-11-20T05:18:30;100657.50;;;-4.42;84.15
64841;BME280;51307;52.162;7.560;2022-11-20T05:20:56;100661.00;;;-4.44;84.29
64841;BME280;51307;52.162;7.560;2022-11-20T05:23:22;100661.13;;;-4.47;84.22
64841;BME280;51307;52.162;7.560;2022-11-20T05:25:47;100651.81;;;-4.48;84.05
64841;BME280;51307;52.162;7.560;2022-11-20T05:28:13;100650.97;;;-4.49;83.99
64841;BME280;51307;52.162;7.560;2022-11-20T05:30:38;100650.97;;;-4.49;84.06
64841;BME280;51307;52.162;7.560;2022-11-20T05:33:03;100646.88;;;-4.53;84.29
64841;BME280;51307;52.162;7.560;2022-11-20T05:35:29;100653.75;;;-4.55;83.99
64841;BME280;51307;52.162;7.560;2022-11-20T05:37:54;100640.25;;;-4.57;84.00
64841;BME280;51307;52.162;7.560;2022-11-20T05:40:20;100649.63;;;-4.57;84.22
64841;BME280;51307;52.162;7.560;2022-11-20T05:42:45;100642.78;;;-4.57;84.27
64841;BME280;51307;52.162;7.560;2022-11-20T05:45:11;100647.84;;;-4.55;84.29
64841;BME280;51307;52.162;7.560;2022-11-20T05:47:36;100639.41;;;-4.57;84.42
64841;BME280;51307;52.162;7.560;2022-11-20T05:50:02;100642.09;;;-4.60;84.59
64841;BME280;51307;52.162;7.560;2022-11-20T05:52:28;100637.94;;;-4.63;84.73
64841;BME280;51307;52.162;7.560;2022-11-20T05:54:54;100650.66;;;-4.63;84.55
64841;BME280;51307;52.162;7.560;2022-11-20T05:57:20;100651.56;;;-4.64;84.90
64841;BME280;51307;52.162;7.560;2022-11-20T05:59:45;100648.31;;;-4.68;85.06
64841;BME280;51307;52.162;7.560;2022-11-20T06:02:10;100645.84;;;-4.69;85.71
64841;BME280;51307;52.162;7.560;2022-11-20T06:04:36;100646.72;;;-4.70;85.81
64841;BME280;51307;52.162;7.560;2022-11-20T06:07:01;100638.06;;;-4.66;86.29
64841;BME280;51307;52.162;7.560;2022-11-20T06:09:27;100647.47;;;-4.68;86.34
64841;BME280;51307;52.162;7.560;2022-11-20T06:11:53;100640.59;;;-4.66;86.33
64841;BME280;51307;52.162;7.560;2022-11-20T06:14:18;100647.31;;;-4.64;85.68
64841;BME280;51307;52.162;7.560;2022-11-20T06:16:44;100644.69;;;-4.62;85.48
64841;BME280;51307;52.162;7.560;2022-11-20T06:19:09;100639.59;;;-4.62;85.37
64841;BME280;51307;52.162;7.560;2022-11-20T06:21:35;100637.81;;;-4.60;85.93
64841;BME280;51307;52.162;7.560;2022-11-20T06:24:00;100647.03;;;-4.56;85.84
64841;BME280;51307;52.162;7.560;2022-11-20T06:26:27;100652.03;;;-4.54;85.46
64841;BME280;51307;52.162;7.560;2022-11-20T06:28:53;100647.03;;;-4.56;85.29
64841;BME280;51307;52.162;7.560;2022-11-20T06:31:23;100650.38;;;-4.55;85.40
64841;BME280;51307;52.162;7.560;2022-11-20T06:33:50;100653.84;;;-4.56;85.42
64841;BME280;51307;52.162;7.560;2022-11-20T06:36:18;100656.38;;;-4.56;85.53
64841;BME280;51307;52.162;7.560;2022-11-20T06:38:44;100654.72;;;-4.57;85.25
64841;BME280;51307;52.162;7.560;2022-11-20T06:41:16;100663.25;;;-4.58;85.67
64841;BME280;51307;52.162;7.560;2022-11-20T06:43:42;100668.34;;;-4.58;85.48
64841;BME280;51307;52.162;7.560;2022-11-20T06:46:10;100659.94;;;-4.60;85.70
64841;BME280;51307;52.162;7.560;2022-11-20T06:48:36;100660.81;;;-4.62;86.07
64841;BME280;51307;52.162;7.560;2022-11-20T06:51:06;100664.19;;;-4.61;86.29
64841;BME280;51307;52.162;7.560;2022-11-20T06:53:33;100670.06;;;-4.59;86.30
64841;BME280;51307;52.162;7.560;2022-11-20T06:55:58;100676.09;;;-4.62;86.22
64841;BME280;51307;52.162;7.560;2022-11-20T06:58:27;100665.97;;;-4.63;85.98
64841;BME280;51307;52.162;7.560;2022-11-20T07:00:53;100671.06;;;-4.63;85.85
64841;BME280;51307;52.162;7.560;2022-11-20T07:03:19;100667.69;;;-4.64;85.91
64841;BME280;51307;52.162;7.560;2022-11-20T07:05:44;100671.13;;;-4.65;85.86
64841;BME280;51307;52.162;7.560;2022-11-20T07:08:11;100668.41;;;-4.60;85.88
64841;BME280;51307;52.162;7.560;2022-11-20T07:10:37;100663.91;;;-4.53;85.61
64841;BME280;51307;52.162;7.560;2022-11-20T07:13:03;100656.78;;;-4.45;85.39
64841;BME280;51307;52.162;7.560;2022-11-20T07:15:29;100662.59;;;-4.42;84.85
64841;BME280;51307;52.162;7.560;2022-11-20T07:17:58;100663.34;;;-4.39;84.65
64841;BME280;51307;52.162;7.560;2022-11-20T07:20:24;100665.13;;;-4.42;84.97
64841;BME280;51307;52.162;7.560;2022-11-20T07:22:54;100667.50;;;-4.37;84.58
64841;BME280;51307;52.162;7.560;2022-11-20T07:25:20;100670.94;;;-4.38;84.41
64841;BME280;51307;52.162;7.560;2022-11-20T07:27:45;100673.50;;;-4.38;84.21
64841;BME280;51307;52.162;7.560;2022-11-20T07:30:11;100666.69;;;-4.37;84.28
64841;BME280;51307;52.162;7.560;2022-11-20T07:32:37;100667.50;;;-4.37;84.37
64841;BME280;51307;52.162;7.560;2022-11-20T07:35:02;100670.91;;;-4.36;84.51
64841;BME280;51307;52.162;7.560;2022-11-20T07:37:28;100665.81;;;-4.36;84.90
64841;BME280;51307;52.162;7.560;2022-11-20T07:39:53;100660.63;;;-4.35;85.28
64841;BME280;51307;52.162;7.560;2022-11-20T07:42:19;100666.50;;;-4.33;85.40
64841;BME280;51307;52.162;7.560;2022-11-20T07:44:44;100663.75;;;-4.28;85.58
64841;BME280;51307;52.162;7.560;2022-11-20T07:47:10;100655.16;;;-4.26;85.98
64841;BME280;51307;52.162;7.560;2022-11-20T07:49:35;100655.00;;;-4.21;86.41
64841;BME280;51307;52.162;7.560;2022-11-20T07:52:01;100657.47;;;-4.20;86.64
64841;BME280;51307;52.162;7.560;2022-11-20T07:54:26;100646.38;;;-4.18;87.19
64841;BME280;51307;52.162;7.560;2022-11-20T07:56:53;100646.25;;;-4.15;87.46
64841;BME280;51307;52.162;7.560;2022-11-20T07:59:19;100642.81;;;-4.14;87.58
64841;BME280;51307;52.162;7.560;2022-11-20T08:01:44;100645.25;;;-4.11;87.76
64841;BME280;51307;52.162;7.560;2022-11-20T08:04:10;100637.41;;;-4.07;87.78
64841;BME280;51307;52.162;7.560;2022-11-20T08:06:36;100643.31;;;-4.06;88.19
64841;BME280;51307;52.162;7.560;2022-11-20T08:09:02;100641.53;;;-4.04;88.60
64841;BME280;51307;52.162;7.560;2022-11-20T08:11:28;100638.94;;;-4.03;88.97
64841;BME280;51307;52.162;7.560;2022-11-20T08:14:12;100635.41;;;-4.00;89.58
64841;BME280;51307;52.162;7.560;2022-11-20T08:16:42;100635.63;;;-4.05;89.92
64841;BME280;51307;52.162;7.560;2022-11-20T08:19:08;100634.47;;;-4.18;91.16
64841;BME280;51307;52.162;7.560;2022-11-20T08:21:34;100633.56;;;-4.17;92.17
64841;BME280;51307;52.162;7.560;2022-11-20T08:23:59;100630.66;;;-4.08;92.79
64841;BME280;51307;52.162;7.560;2022-11-20T08:26:26;100627.38;;;-4.11;92.96
64841;BME280;51307;52.162;7.560;2022-11-20T08:28:56;100624.97;;;-4.14;94.19
64841;BME280;51307;52.162;7.560;2022-11-20T08:31:23;100625.75;;;-4.12;94.96
64841;BME280;51307;52.162;7.560;2022-11-20T08:33:49;100635.75;;;-4.08;95.77
64841;BME280;51307;52.162;7.560;2022-11-20T08:36:14;100639.69;;;-4.01;96.50
64841;BME280;51307;52.162;7.560;2022-11-20T08:38:40;100645.38;;;-3.94;97.33
64841;BME280;51307;52.162;7.560;2022-11-20T08:41:06;100653.56;;;-3.86;98.44
64841;BME280;51307;52.162;7.560;2022-11-20T08:43:51;100644.59;;;-3.75;99.10
64841;BME280;51307;52.162;7.560;2022-11-20T08:46:17;100649.25;;;-3.65;99.25
64841;BME280;51307;52.162;7.560;2022-11-20T08:48:43;100650.84;;;-3.62;99.96
64841;BME280;51307;52.162;7.560;2022-11-20T08:51:09;100657.47;;;-3.58;100.00
64841;BME280;51307;52.162;7.560;2022-11-20T08:53:35;100659.78;;;-3.52;100.00
64841;BME280;51307;52.162;7.560;2022-11-20T08:56:01;100657.84;;;-3.47;100.00
64841;BME280;51307;52.162;7.560;2022-11-20T08:58:26;100656.88;;;-3.44;100.00
64841;BME280;51307;52.162;7.560;2022-11-20T09:00:52;100658.66;;;-3.26;100.00
64841;BME280;51307;52.162;7.560;2022-11-20T09:11:50;100649.81;;;-3.00;100.00
64841;BME280;51307;52.162;7.560;2022-11-20T09:14:16;100648.91;;;-2.99;100.00
64841;BME280;51307;52.162;7.560;2022-11-20T09:16:41;100641.84;;;-2.93;100.00
64841;BME280;51307;52.162;7.560;2022-11-20T09:19:07;100639.78;;;-2.85;100.00
64841;BME280;51307;52.162;7.560;2022-11-20T09:21:32;100643.81;;;-2.80;100.00
64841;BME280;51307;52.162;7.560;2022-11-20T09:23:58;100635.81;;;-2.73;100.00
64841;BME280;51307;52.162;7.560;2022-11-20T09:26:23;100629.47;;;-2.65;100.00
64841;BME280;51307;52.162;7.560;2022-11-20T09:28:48;100619.94;;;-2.61;100.00
64841;BME280;51307;52.162;7.560;2022-11-20T09:31:25;100623.94;;;-2.56;100.00
64841;BME280;51307;52.162;7.560;2022-11-20T09:33:51;100621.16;;;-2.51;100.00
64841;BME280;51307;52.162;7.560;2022-11-20T09:36:17;100619.19;;;-2.46;100.00
64841;BME280;51307;52.162;7.560;2022-11-20T09:38:47;100625.00;;;-2.42;100.00
64841;BME280;51307;52.162;7.560;2022-11-20T09:41:35;100620.47;;;-2.37;100.00
64841;BME280;51307;52.162;7.560;2022-11-20T09:46:54;100617.53;;;-2.29;100.00
64841;BME280;51307;52.162;7.560;2022-11-20T09:52:01;100600.91;;;-2.21;100.00
64841;BME280;51307;52.162;7.560;2022-11-20T09:54:36;100599.88;;;-2.17;100.00
64841;BME280;51307;52.162;7.560;2022-11-20T09:57:11;100595.38;;;-2.11;100.00
64841;BME280;51307;52.162;7.560;2022-11-20T09:59:40;100599.63;;;-2.12;100.00
64841;BME280;51307;52.162;7.560;2022-11-20T10:02:27;100593.56;;;-2.09;100.00
64841;BME280;51307;52.162;7.560;2022-11-20T10:05:06;100593.47;;;-2.08;100.00
64841;BME280;51307;52.162;7.560;2022-11-20T10:07:43;100588.50;;;-2.11;100.00
64841;BME280;51307;52.162;7.560;2022-11-20T10:19:21;100578.84;;;-1.88;100.00
64841;BME280;51307;52.162;7.560;2022-11-20T10:29:18;100584.84;;;-1.72;100.00
64841;BME280;51307;52.162;7.560;2022-11-20T10:32:10;100581.13;;;-1.66;100.00
64841;BME280;51307;52.162;7.560;2022-11-20T11:57:52;100501.59;;;-0.55;100.00
64841;BME280;51307;52.162;7.560;2022-11-20T12:00:21;100502.31;;;-0.53;100.00
64841;BME280;51307;52.162;7.560;2022-11-20T12:05:24;100501.91;;;-0.45;100.00
64841;BME280;51307;52.162;7.560;2022-11-20T12:08:10;100496.59;;;-0.42;100.00
64841;BME280;51307;52.162;7.560;2022-11-20T12:16:01;100468.50;;;-0.15;100.00
64841;BME280;51307;52.162;7.560;2022-11-20T12:18:28;100475.44;;;-0.03;100.00
64841;BME280;51307;52.162;7.560;2022-11-20T12:34:42;100442.59;;;0.58;100.00
64841;BME280;51307;52.162;7.560;2022-11-20T12:39:58;100444.66;;;0.66;100.00
64841;BME280;51307;52.162;7.560;2022-11-20T12:42:52;100437.78;;;0.66;100.00
64841;BME280;51307;52.162;7.560;2022-11-20T12:48:36;100435.59;;;0.60;100.00
64841;BME280;51307;52.162;7.560;2022-11-20T12:56:54;100430.34;;;0.62;100.00
64841;BME280;51307;52.162;7.560;2022-11-20T13:08:20;100427.59;;;0.65;100.00
64841;BME280;51307;52.162;7.560;2022-11-20T13:16:33;100410.50;;;0.51;100.00
64841;BME280;51307;52.162;7.560;2022-11-20T13:19:04;100401.94;;;0.50;100.00
64841;BME280;51307;52.162;7.560;2022-11-20T13:21:39;100397.75;;;0.49;100.00
64841;BME280;51307;52.162;7.560;2022-11-20T13:24:07;100383.06;;;0.51;100.00
64841;BME280;51307;52.162;7.560;2022-11-20T13:26:33;100389.94;;;0.51;100.00
64841;BME280;51307;52.162;7.560;2022-11-20T13:29:11;100389.22;;;0.49;100.00
64841;BME280;51307;52.162;7.560;2022-11-20T13:31:43;100370.69;;;0.44;100.00
64841;BME280;51307;52.162;7.560;2022-11-20T13:34:14;100367.50;;;0.40;100.00
64841;BME280;51307;52.162;7.560;2022-11-20T13:36:52;100359.97;;;0.37;100.00
64841;BME280;51307;52.162;7.560;2022-11-20T13:39:32;100361.09;;;0.33;100.00
64841;BME280;51307;52.162;7.560;2022-11-20T13:42:01;100355.03;;;0.34;100.00
64841;BME280;51307;52.162;7.560;2022-11-20T13:44:39;100352.56;;;0.32;100.00
64841;BME280;51307;52.162;7.560;2022-11-20T13:47:22;100349.91;;;0.34;100.00
64841;BME280;51307;52.162;7.560;2022-11-20T13:49:49;100339.72;;;0.32;100.00
64841;BME280;51307;52.162;7.560;2022-11-20T14:00:31;100321.44;;;0.37;100.00
64841;BME280;51307;52.162;7.560;2022-11-20T14:05:56;100325.25;;;0.31;100.00
64841;BME280;51307;52.162;7.560;2022-11-20T14:08:27;100321.94;;;0.29;100.00
64841;BME280;51307;52.162;7.560;2022-11-20T14:13:39;100310.13;;;0.27;100.00
64841;BME280;51307;52.162;7.560;2022-11-20T14:16:04;100312.78;;;0.25;100.00
64841;BME280;51307;52.162;7.560;2022-11-20T14:18:30;100307.75;;;0.24;100.00
64841;BME280;51307;52.162;7.560;2022-11-20T14:20:55;100296.88;;;0.20;100.00
64841;BME280;51307;52.162;7.560;2022-11-20T14:23:28;100295.31;;;0.18;100.00
64841;BME280;51307;52.162;7.560;2022-11-20T14:25:55;100289.34;;;0.17;100.00
64841;BME280;51307;52.162;7.560;2022-11-20T14:28:29;100291.09;;;0.17;100.00
64841;BME280;51307;52.162;7.560;2022-11-20T14:30:56;100281.75;;;0.15;100.00
64841;BME280;51307;52.162;7.560;2022-11-20T14:33:25;100279.28;;;0.14;100.00
64841;BME280;51307;52.162;7.560;2022-11-20T14:35:54;100279.38;;;0.12;100.00
64841;BME280;51307;52.162;7.560;2022-11-20T14:38:26;100280.38;;;0.10;100.00
64841;BME280;51307;52.162;7.560;2022-11-20T14:40:52;100277.91;;;0.08;100.00
64841;BME280;51307;52.162;7.560;2022-11-20T14:43:28;100281.19;;;0.10;100.00
64841;BME280;51307;52.162;7.560;2022-11-20T14:46:04;100288.09;;;0.10;100.00
64841;BME280;51307;52.162;7.560;2022-11-20T14:48:47;100275.25;;;0.10;100.00
64841;BME280;51307;52.162;7.560;2022-11-20T14:54:09;100280.91;;;0.15;100.00
64841;BME280;51307;52.162;7.560;2022-11-20T14:56:35;100277.53;;;0.14;100.00
64841;BME280;51307;52.162;7.560;2022-11-20T14:59:01;100274.06;;;0.15;100.00
64841;BME280;51307;52.162;7.560;2022-11-20T15:01:28;100268.91;;;0.15;100.00
64841;BME280;51307;52.162;7.560;2022-11-20T15:04:10;100263.78;;;0.15;100.00
64841;BME280;51307;52.162;7.560;2022-11-20T15:06:37;100260.28;;;0.17;100.00
64841;BME280;51307;52.162;7.560;2022-11-20T15:09:04;100250.00;;;0.17;100.00
64841;BME280;51307;52.162;7.560;2022-11-20T15:11:35;100245.81;;;0.15;100.00
64841;BME280;51307;52.162;7.560;2022-11-20T15:14:04;100250.09;;;0.15;100.00
64841;BME280;51307;52.162;7.560;2022-11-20T15:16:31;100238.91;;;0.16;100.00
64841;BME280;51307;52.162;7.560;2022-11-20T15:18:57;100232.25;;;0.13;100.00
64841;BME280;51307;52.162;7.560;2022-11-20T15:21:23;100228.94;;;0.11;100.00
64841;BME280;51307;52.162;7.560;2022-11-20T15:23:49;100229.13;;;0.08;100.00
64841;BME280;51307;52.162;7.560;2022-11-20T15:26:23;100221.34;;;0.10;100.00
64841;BME280;51307;52.162;7.560;2022-11-20T15:28:50;100226.16;;;0.14;100.00
64841;BME280;51307;52.162;7.560;2022-11-20T15:31:20;100218.69;;;0.11;100.00
64841;BME280;51307;52.162;7.560;2022-11-20T15:33:46;100213.41;;;0.13;100.00
64841;BME280;51307;52.162;7.560;2022-11-20T15:36:12;100212.59;;;0.12;100.00
64841;BME280;51307;52.162;7.560;2022-11-20T15:38:38;100209.84;;;0.15;100.00
64841;BME280;51307;52.162;7.560;2022-11-20T15:41:04;100203.78;;;0.17;100.00
64841;BME280;51307;52.162;7.560;2022-11-20T15:43:30;100199.38;;;0.19;100.00
64841;BME280;51307;52.162;7.560;2022-11-20T15:48:54;100195.88;;;0.20;100.00
64841;BME280;51307;52.162;7.560;2022-11-20T15:51:28;100188.16;;;0.20;100.00
64841;BME280;51307;52.162;7.560;2022-11-20T15:53:55;100180.28;;;0.23;100.00
64841;BME280;51307;52.162;7.560;2022-11-20T15:56:21;100183.75;;;0.22;100.00
64841;BME280;51307;52.162;7.560;2022-11-20T15:58:47;100180.38;;;0.21;100.00
64841;BME280;51307;52.162;7.560;2022-11-20T16:01:16;100171.75;;;0.22;100.00
64841;BME280;51307;52.162;7.560;2022-11-20T16:03:42;100163.34;;;0.20;100.00
64841;BME280;51307;52.162;7.560;2022-11-20T16:06:08;100156.03;;;0.14;100.00